createdAt,value
2017-12-28T00:00:01.066Z,6.89
2017-12-28T00:01:00.975Z,6.86
2017-12-28T00:02:00.884Z,6.80
2017-12-28T00:03:00.787Z,6.83
2017-12-28T00:04:00.702Z,6.84
2017-12-28T00:05:00.649Z,6.97
2017-12-28T00:06:00.520Z,7.02
2017-12-28T00:07:00.434Z,7.02
2017-12-28T00:08:00.396Z,6.89
2017-12-28T00:09:00.256Z,6.89
2017-12-28T00:10:00.163Z,7.04
2017-12-28T00:11:00.077Z,7.01
2017-12-28T00:12:00.017Z,6.90
2017-12-28T00:12:59.900Z,6.87
2017-12-28T00:13:59.809Z,6.98
2017-12-28T00:14:59.717Z,6.84
2017-12-28T00:15:59.634Z,6.77
2017-12-28T00:16:59.535Z,6.90
2017-12-28T00:17:59.443Z,6.87
2017-12-28T00:18:59.352Z,6.97
2017-12-28T00:19:59.263Z,7.04
2017-12-28T00:20:59.176Z,6.86
2017-12-28T00:21:59.107Z,6.72
2017-12-28T00:22:59.003Z,6.79
2017-12-28T00:23:58.909Z,6.71
2017-12-28T00:24:58.830Z,6.89
2017-12-28T00:25:58.724Z,6.91
2017-12-28T00:26:58.634Z,6.97
2017-12-28T00:27:58.546Z,7.02
2017-12-28T00:28:58.465Z,6.79
2017-12-28T00:29:58.379Z,6.87
2017-12-28T00:30:58.283Z,6.89
2017-12-28T00:31:58.189Z,6.87
2017-12-28T00:32:58.107Z,6.90
2017-12-28T00:33:58.037Z,6.80
2017-12-28T00:34:57.927Z,6.98
2017-12-28T00:35:57.834Z,6.79
2017-12-28T00:36:57.741Z,6.84
2017-12-28T00:37:57.661Z,6.87
2017-12-28T00:38:57.568Z,6.77
2017-12-28T00:39:57.477Z,6.86
2017-12-28T00:40:57.383Z,6.81
2017-12-28T00:41:57.294Z,6.72
2017-12-28T00:42:57.201Z,6.84
2017-12-28T00:43:57.114Z,6.84
2017-12-28T00:44:57.022Z,6.87
2017-12-28T00:45:56.932Z,6.99
2017-12-28T00:46:56.844Z,7.02
2017-12-28T00:47:56.753Z,6.84
2017-12-28T00:48:56.678Z,7.02
2017-12-28T00:49:56.584Z,6.83
2017-12-28T00:50:56.486Z,6.84
2017-12-28T00:51:56.397Z,6.86
2017-12-28T00:52:56.324Z,6.69
2017-12-28T00:53:56.228Z,6.76
2017-12-28T00:54:56.146Z,6.80
2017-12-28T00:55:56.046Z,6.86
2017-12-28T00:56:55.951Z,6.89
2017-12-28T00:57:55.864Z,6.81
2017-12-28T00:58:55.776Z,6.81
2017-12-28T00:59:55.683Z,6.87
2017-12-28T01:00:55.593Z,6.83
2017-12-28T01:01:55.501Z,6.68
2017-12-28T01:02:55.431Z,6.71
2017-12-28T01:03:55.322Z,6.76
2017-12-28T01:04:55.233Z,6.80
2017-12-28T01:05:55.136Z,6.91
2017-12-28T01:06:55.050Z,6.81
2017-12-28T01:07:54.959Z,6.81
2017-12-28T01:08:54.870Z,6.71
2017-12-28T01:09:54.778Z,6.71
2017-12-28T01:10:54.704Z,6.81
2017-12-28T01:11:54.610Z,6.90
2017-12-28T01:12:54.518Z,6.86
2017-12-28T01:13:54.429Z,6.87
2017-12-28T01:14:54.341Z,6.81
2017-12-28T01:15:54.358Z,6.59
2017-12-28T01:16:54.155Z,6.56
2017-12-28T01:17:54.063Z,6.69
2017-12-28T01:18:53.976Z,6.62
2017-12-28T01:19:53.885Z,6.66
2017-12-28T01:20:53.802Z,6.66
2017-12-28T01:21:53.713Z,6.63
2017-12-28T01:22:53.627Z,6.50
2017-12-28T01:23:53.552Z,6.65
2017-12-28T01:24:53.451Z,6.66
2017-12-28T01:25:53.343Z,6.72
2017-12-28T01:26:53.263Z,6.69
2017-12-28T01:27:53.167Z,6.41
2017-12-28T01:28:53.080Z,6.59
2017-12-28T01:29:52.990Z,6.66
2017-12-28T01:30:52.896Z,6.66
2017-12-28T01:31:52.814Z,6.68
2017-12-28T01:32:52.714Z,6.51
2017-12-28T01:33:52.633Z,6.48
2017-12-28T01:34:52.537Z,6.72
2017-12-28T01:35:52.448Z,6.62
2017-12-28T01:36:52.353Z,6.72
2017-12-28T01:37:52.268Z,6.59
2017-12-28T01:38:52.178Z,5.92
2017-12-28T01:39:52.084Z,6.18
2017-12-28T01:40:51.995Z,6.41
2017-12-28T01:41:51.906Z,6.59
2017-12-28T01:42:51.819Z,6.63
2017-12-28T01:43:51.756Z,6.61
2017-12-28T01:44:51.637Z,6.41
2017-12-28T01:45:51.547Z,6.53
2017-12-28T01:46:51.454Z,6.69
2017-12-28T01:47:51.365Z,6.66
2017-12-28T01:48:51.277Z,6.63
2017-12-28T01:49:51.189Z,6.65
2017-12-28T01:50:51.093Z,6.54
2017-12-28T01:51:51.005Z,6.58
2017-12-28T01:52:50.930Z,6.58
2017-12-28T01:53:50.830Z,6.62
2017-12-28T01:54:50.745Z,6.61
2017-12-28T01:55:50.652Z,6.33
2017-12-28T01:56:50.557Z,6.18
2017-12-28T01:57:50.477Z,6.26
2017-12-28T01:58:50.378Z,6.10
2017-12-28T01:59:50.289Z,6.38
2017-12-28T02:00:50.222Z,6.36
2017-12-28T02:01:50.112Z,6.53
2017-12-28T02:02:50.020Z,6.59
2017-12-28T02:03:49.931Z,6.65
2017-12-28T02:04:49.834Z,6.53
2017-12-28T02:05:49.746Z,6.47
2017-12-28T02:06:49.654Z,6.51
2017-12-28T02:07:49.566Z,6.40
2017-12-28T02:08:49.477Z,6.48
2017-12-28T02:09:49.396Z,6.43
2017-12-28T02:10:49.292Z,6.44
2017-12-28T02:11:49.208Z,6.46
2017-12-28T02:12:49.119Z,6.43
2017-12-28T02:13:49.036Z,6.38
2017-12-28T02:14:48.932Z,6.40
2017-12-28T02:15:48.865Z,6.41
2017-12-28T02:16:48.757Z,6.40
2017-12-28T02:17:48.665Z,6.18
2017-12-28T02:18:48.573Z,6.29
2017-12-28T02:19:48.488Z,6.32
2017-12-28T02:20:48.402Z,6.35
2017-12-28T02:21:48.310Z,6.25
2017-12-28T02:22:48.223Z,6.38
2017-12-28T02:23:48.128Z,6.28
2017-12-28T02:24:48.035Z,6.35
2017-12-28T02:25:47.937Z,6.21
2017-12-28T02:26:47.853Z,6.16
2017-12-28T02:27:47.764Z,6.40
2017-12-28T02:28:47.675Z,6.19
2017-12-28T02:29:47.582Z,6.19
2017-12-28T02:30:47.495Z,6.16
2017-12-28T02:31:47.403Z,6.07
2017-12-28T02:32:47.307Z,6.16
2017-12-28T02:33:47.240Z,6.19
2017-12-28T02:34:47.131Z,6.19
2017-12-28T02:35:47.049Z,5.98
2017-12-28T02:36:46.953Z,6.01
2017-12-28T02:37:46.857Z,6.03
2017-12-28T02:38:46.764Z,6.18
2017-12-28T02:39:46.681Z,6.01
2017-12-28T02:40:46.599Z,6.19
2017-12-28T02:41:46.495Z,6.41
2017-12-28T02:42:46.406Z,6.10
2017-12-28T02:43:46.310Z,5.88
2017-12-28T02:44:46.222Z,5.86
2017-12-28T02:45:46.135Z,6.01
2017-12-28T02:46:46.041Z,5.77
2017-12-28T02:47:45.947Z,5.89
2017-12-28T02:48:45.858Z,5.91
2017-12-28T02:49:45.768Z,6.01
2017-12-28T02:50:45.681Z,5.93
2017-12-28T02:51:45.586Z,5.98
2017-12-28T02:52:45.496Z,6.03
2017-12-28T02:53:45.422Z,6.33
2017-12-28T02:54:45.325Z,6.30
2017-12-28T02:55:45.261Z,6.32
2017-12-28T02:56:45.151Z,6.14
2017-12-28T02:57:45.056Z,6.38
2017-12-28T02:58:44.956Z,6.11
2017-12-28T02:59:44.866Z,6.09
2017-12-28T03:00:44.796Z,5.93
2017-12-28T03:01:44.686Z,6.03
2017-12-28T03:02:44.632Z,6.14
2017-12-28T03:03:44.507Z,6.01
2017-12-28T03:04:44.419Z,6.03
2017-12-28T03:05:44.331Z,5.78
2017-12-28T03:06:44.229Z,5.83
2017-12-28T03:07:44.143Z,5.92
2017-12-28T03:08:44.061Z,5.91
2017-12-28T03:09:43.998Z,5.93
2017-12-28T03:10:43.872Z,5.96
2017-12-28T03:11:43.783Z,6.01
2017-12-28T03:12:43.689Z,6.14
2017-12-28T03:13:43.601Z,6.19
2017-12-28T03:14:43.528Z,6.09
2017-12-28T03:15:43.420Z,6.07
2017-12-28T03:16:43.326Z,5.91
2017-12-28T03:17:43.237Z,6.10
2017-12-28T03:18:43.147Z,6.16
2017-12-28T03:19:43.060Z,6.11
2017-12-28T03:20:42.970Z,6.10
2017-12-28T03:21:42.880Z,6.13
2017-12-28T03:22:42.800Z,5.89
2017-12-28T03:23:42.708Z,6.01
2017-12-28T03:24:42.613Z,5.93
2017-12-28T03:25:42.531Z,6.00
2017-12-28T03:26:42.430Z,5.70
2017-12-28T03:27:42.349Z,5.93
2017-12-28T03:28:42.278Z,6.14
2017-12-28T03:29:42.156Z,6.18
2017-12-28T03:30:42.079Z,6.35
2017-12-28T03:31:41.977Z,6.36
2017-12-28T03:32:41.887Z,6.09
2017-12-28T03:33:41.803Z,5.96
2017-12-28T03:34:41.707Z,6.07
2017-12-28T03:35:41.628Z,6.30
2017-12-28T03:36:41.530Z,6.32
2017-12-28T03:37:41.442Z,6.35
2017-12-28T03:38:41.352Z,6.19
2017-12-28T03:39:41.265Z,6.33
2017-12-28T03:40:41.178Z,6.28
2017-12-28T03:41:41.083Z,6.18
2017-12-28T03:42:40.990Z,6.25
2017-12-28T03:43:40.903Z,6.16
2017-12-28T03:44:40.813Z,6.16
2017-12-28T03:45:40.727Z,6.14
2017-12-28T03:46:40.658Z,6.19
2017-12-28T03:47:40.544Z,6.41
2017-12-28T03:48:40.457Z,6.41
2017-12-28T03:49:40.380Z,6.48
2017-12-28T03:50:40.291Z,6.40
2017-12-28T03:51:40.202Z,6.40
2017-12-28T03:52:40.103Z,6.28
2017-12-28T03:53:40.009Z,5.93
2017-12-28T03:54:39.923Z,6.09
2017-12-28T03:55:39.833Z,6.00
2017-12-28T03:56:39.746Z,6.00
2017-12-28T03:57:39.650Z,6.18
2017-12-28T03:58:39.570Z,6.29
2017-12-28T03:59:39.475Z,6.32
2017-12-28T04:00:39.388Z,6.25
2017-12-28T04:01:39.296Z,5.92
2017-12-28T04:02:39.437Z,6.07
2017-12-28T04:03:39.117Z,6.14
2017-12-28T04:04:39.046Z,6.19
2017-12-28T04:05:38.937Z,6.36
2017-12-28T04:06:38.856Z,6.33
2017-12-28T04:07:38.765Z,6.36
2017-12-28T04:08:38.668Z,6.26
2017-12-28T04:09:38.577Z,6.25
2017-12-28T04:10:38.495Z,6.32
2017-12-28T04:11:38.404Z,6.36
2017-12-28T04:12:38.309Z,6.47
2017-12-28T04:13:38.221Z,6.43
2017-12-28T04:14:38.138Z,6.41
2017-12-28T04:15:38.054Z,6.36
2017-12-28T04:16:37.957Z,6.47
2017-12-28T04:17:37.865Z,6.41
2017-12-28T04:18:37.777Z,6.36
2017-12-28T04:19:37.692Z,6.47
2017-12-28T04:20:37.599Z,6.32
2017-12-28T04:21:37.515Z,6.40
2017-12-28T04:22:37.429Z,6.43
2017-12-28T04:23:37.332Z,6.51
2017-12-28T04:24:37.247Z,6.44
2017-12-28T04:25:37.152Z,6.41
2017-12-28T04:26:37.064Z,6.48
2017-12-28T04:27:36.976Z,6.48
2017-12-28T04:28:36.889Z,6.53
2017-12-28T04:29:36.802Z,6.56
2017-12-28T04:30:36.719Z,6.62
2017-12-28T04:31:36.665Z,6.62
2017-12-28T04:32:36.534Z,6.41
2017-12-28T04:33:36.444Z,6.38
2017-12-28T04:34:36.356Z,6.58
2017-12-28T04:35:36.264Z,6.66
2017-12-28T04:36:36.183Z,6.61
2017-12-28T04:37:36.099Z,6.66
2017-12-28T04:38:36.090Z,6.58
2017-12-28T04:39:35.924Z,6.58
2017-12-28T04:40:35.821Z,6.68
2017-12-28T04:41:35.736Z,6.69
2017-12-28T04:42:35.642Z,6.51
2017-12-28T04:43:35.563Z,6.62
2017-12-28T04:44:35.478Z,6.43
2017-12-28T04:45:35.409Z,6.46
2017-12-28T04:46:35.302Z,6.41
2017-12-28T04:47:35.206Z,6.46
2017-12-28T04:48:35.118Z,6.58
2017-12-28T04:49:35.024Z,6.32
2017-12-28T04:50:34.930Z,6.48
2017-12-28T04:51:34.860Z,6.46
2017-12-28T04:52:34.763Z,6.56
2017-12-28T04:53:34.668Z,6.62
2017-12-28T04:54:34.579Z,6.72
2017-12-28T04:55:34.491Z,6.80
2017-12-28T04:56:34.403Z,6.77
2017-12-28T04:57:34.319Z,6.83
2017-12-28T04:58:34.222Z,6.76
2017-12-28T04:59:34.141Z,6.71
2017-12-28T05:00:34.048Z,6.71
2017-12-28T05:01:33.956Z,6.71
2017-12-28T05:02:33.879Z,6.79
2017-12-28T05:03:33.788Z,6.87
2017-12-28T05:04:33.691Z,6.66
2017-12-28T05:05:33.604Z,6.71
2017-12-28T05:06:33.522Z,6.69
2017-12-28T05:07:33.438Z,6.81
2017-12-28T05:08:33.338Z,6.80
2017-12-28T05:09:33.257Z,6.77
2017-12-28T05:10:33.161Z,6.71
2017-12-28T05:11:33.077Z,6.84
2017-12-28T05:12:32.988Z,6.83
2017-12-28T05:13:32.902Z,6.83
2017-12-28T05:14:32.812Z,6.83
2017-12-28T05:15:32.735Z,6.83
2017-12-28T05:16:32.634Z,6.77
2017-12-28T05:17:32.552Z,6.77
2017-12-28T05:18:32.467Z,6.80
2017-12-28T05:19:32.371Z,6.76
2017-12-28T05:20:32.286Z,6.80
2017-12-28T05:21:32.194Z,6.83
2017-12-28T05:22:32.115Z,6.84
2017-12-28T05:23:32.023Z,6.83
2017-12-28T05:24:31.935Z,6.66
2017-12-28T05:25:31.850Z,6.81
2017-12-28T05:26:31.762Z,6.77
2017-12-28T05:27:31.669Z,6.65
2017-12-28T05:28:31.587Z,6.65
2017-12-28T05:29:31.500Z,6.72
2017-12-28T05:30:31.407Z,6.59
2017-12-28T05:31:31.320Z,6.68
2017-12-28T05:32:31.243Z,6.89
2017-12-28T05:33:31.145Z,6.81
2017-12-28T05:34:31.053Z,6.87
2017-12-28T05:35:30.973Z,6.86
2017-12-28T05:36:30.877Z,6.83
2017-12-28T05:37:30.785Z,6.87
2017-12-28T05:38:30.702Z,6.80
2017-12-28T05:39:30.612Z,6.84
2017-12-28T05:40:30.531Z,6.44
2017-12-28T05:41:30.433Z,6.53
2017-12-28T05:42:30.347Z,6.69
2017-12-28T05:43:30.265Z,6.71
2017-12-28T05:44:30.184Z,6.86
2017-12-28T05:45:30.086Z,6.66
2017-12-28T05:46:30.000Z,6.65
2017-12-28T05:47:29.907Z,6.71
2017-12-28T05:48:29.822Z,6.77
2017-12-28T05:49:29.730Z,6.86
2017-12-28T05:50:29.654Z,6.81
2017-12-28T05:51:29.559Z,6.77
2017-12-28T05:52:29.466Z,6.77
2017-12-28T05:53:29.377Z,6.77
2017-12-28T05:54:29.294Z,6.80
2017-12-28T05:55:29.228Z,6.90
2017-12-28T05:56:29.119Z,6.77
2017-12-28T05:57:29.030Z,6.69
2017-12-28T05:58:28.938Z,6.63
2017-12-28T05:59:28.850Z,6.69
2017-12-28T06:00:28.762Z,6.73
2017-12-28T06:01:28.676Z,6.73
2017-12-28T06:02:28.602Z,6.76
2017-12-28T06:03:28.506Z,6.89
2017-12-28T06:04:28.413Z,6.80
2017-12-28T06:05:28.321Z,6.73
2017-12-28T06:06:28.236Z,6.71
2017-12-28T06:07:28.156Z,6.71
2017-12-28T06:08:28.059Z,6.76
2017-12-28T06:09:27.968Z,6.84
2017-12-28T06:10:27.886Z,6.87
2017-12-28T06:11:27.793Z,6.91
2017-12-28T06:12:27.707Z,6.83
2017-12-28T06:13:27.619Z,6.84
2017-12-28T06:14:27.532Z,6.90
2017-12-28T06:15:27.443Z,6.71
2017-12-28T06:16:27.363Z,6.69
2017-12-28T06:17:27.276Z,6.84
2017-12-28T06:18:27.184Z,6.80
2017-12-28T06:19:27.104Z,6.80
2017-12-28T06:20:27.019Z,6.81
2017-12-28T06:21:26.914Z,6.76
2017-12-28T06:22:26.830Z,6.69
2017-12-28T06:23:26.744Z,6.65
2017-12-28T06:24:26.649Z,6.65
2017-12-28T06:25:26.564Z,6.71
2017-12-28T06:26:26.475Z,6.80
2017-12-28T06:27:26.396Z,6.77
2017-12-28T06:28:26.305Z,6.79
2017-12-28T06:29:26.220Z,6.79
2017-12-28T06:30:26.127Z,6.81
2017-12-28T06:31:26.036Z,6.81
2017-12-28T06:32:25.946Z,6.84
2017-12-28T06:33:25.890Z,6.84
2017-12-28T06:34:25.770Z,6.83
2017-12-28T06:35:25.687Z,6.81
2017-12-28T06:36:25.594Z,6.84
2017-12-28T06:37:25.507Z,6.72
2017-12-28T06:38:25.425Z,6.69
2017-12-28T06:39:25.333Z,6.62
2017-12-28T06:40:25.266Z,6.77
2017-12-28T06:41:25.155Z,6.83
2017-12-28T06:42:25.069Z,6.79
2017-12-28T06:43:24.985Z,6.81
2017-12-28T06:44:24.898Z,6.77
2017-12-28T06:45:24.804Z,6.72
2017-12-28T06:46:24.718Z,6.80
2017-12-28T06:47:24.627Z,6.84
2017-12-28T06:48:24.575Z,6.73
2017-12-28T06:49:24.461Z,6.80
2017-12-28T06:50:24.358Z,6.81
2017-12-28T06:51:24.280Z,6.79
2017-12-28T06:52:24.185Z,6.76
2017-12-28T06:53:24.094Z,6.86
2017-12-28T06:54:24.006Z,6.80
2017-12-28T06:55:23.966Z,6.84
2017-12-28T06:56:23.847Z,6.89
2017-12-28T06:57:23.758Z,6.86
2017-12-28T06:58:23.658Z,6.87
2017-12-28T06:59:23.568Z,6.89
2017-12-28T07:00:23.562Z,6.61
2017-12-28T07:01:23.392Z,6.69
2017-12-28T07:02:23.304Z,6.73
2017-12-28T07:03:23.211Z,6.87
2017-12-28T07:04:23.124Z,6.83
2017-12-28T07:05:23.036Z,6.83
2017-12-28T07:06:22.947Z,6.80
2017-12-28T07:07:22.860Z,6.80
2017-12-28T07:08:22.780Z,6.80
2017-12-28T07:09:22.704Z,6.81
2017-12-28T07:10:22.600Z,6.80
2017-12-28T07:11:22.513Z,6.84
2017-12-28T07:12:22.417Z,6.73
2017-12-28T07:13:22.324Z,6.80
2017-12-28T07:14:22.337Z,6.76
2017-12-28T07:15:22.156Z,6.63
2017-12-28T07:16:22.095Z,6.80
2017-12-28T07:17:21.972Z,6.72
2017-12-28T07:18:21.888Z,6.76
2017-12-28T07:19:21.800Z,6.69
2017-12-28T07:20:21.708Z,6.81
2017-12-28T07:21:21.619Z,6.87
2017-12-28T07:22:21.550Z,6.90
2017-12-28T07:23:21.448Z,6.90
2017-12-28T07:24:21.378Z,6.84
2017-12-28T07:25:21.265Z,6.83
2017-12-28T07:26:21.178Z,6.80
2017-12-28T07:27:21.088Z,6.86
2017-12-28T07:28:21.007Z,6.83
2017-12-28T07:29:20.915Z,6.86
2017-12-28T07:30:20.877Z,6.89
2017-12-28T07:31:20.738Z,6.87
2017-12-28T07:32:20.653Z,6.81
2017-12-28T07:33:20.560Z,6.86
2017-12-28T07:34:20.471Z,6.79
2017-12-28T07:35:20.384Z,6.69
2017-12-28T07:36:20.310Z,6.73
2017-12-28T07:37:20.228Z,6.66
2017-12-28T07:38:20.124Z,6.61
2017-12-28T07:39:20.038Z,6.54
2017-12-28T07:40:19.954Z,6.63
2017-12-28T07:41:19.853Z,6.69
2017-12-28T07:42:19.759Z,6.63
2017-12-28T07:43:19.681Z,6.71
2017-12-28T07:44:19.585Z,6.73
2017-12-28T07:45:19.499Z,6.72
2017-12-28T07:46:19.413Z,6.50
2017-12-28T07:47:19.321Z,6.47
2017-12-28T07:48:19.231Z,6.40
2017-12-28T07:49:19.162Z,6.54
2017-12-28T07:50:19.059Z,6.58
2017-12-28T07:51:18.985Z,6.58
2017-12-28T07:52:18.875Z,6.43
2017-12-28T07:53:18.783Z,6.59
2017-12-28T07:54:18.696Z,6.66
2017-12-28T07:55:18.605Z,6.63
2017-12-28T07:56:18.526Z,6.66
2017-12-28T07:57:18.442Z,6.59
2017-12-28T07:58:18.347Z,6.41
2017-12-28T07:59:18.254Z,6.51
2017-12-28T08:00:18.166Z,6.54
2017-12-28T08:01:18.076Z,6.65
2017-12-28T08:02:17.985Z,6.71
2017-12-28T08:03:17.898Z,6.68
2017-12-28T08:04:17.809Z,6.81
2017-12-28T08:05:17.718Z,6.68
2017-12-28T08:06:17.635Z,6.77
2017-12-28T08:07:17.543Z,6.73
2017-12-28T08:08:17.458Z,6.72
2017-12-28T08:09:17.361Z,6.66
2017-12-28T08:10:17.281Z,6.54
2017-12-28T08:11:17.187Z,6.61
2017-12-28T08:12:17.109Z,6.68
2017-12-28T08:13:17.011Z,6.59
2017-12-28T08:14:16.923Z,6.73
2017-12-28T08:15:16.837Z,6.65
2017-12-28T08:16:16.746Z,6.62
2017-12-28T08:17:16.652Z,6.62
2017-12-28T08:18:16.568Z,6.62
2017-12-28T08:19:16.481Z,6.66
2017-12-28T08:20:16.391Z,6.66
2017-12-28T08:21:16.296Z,6.73
2017-12-28T08:22:16.221Z,6.62
2017-12-28T08:23:16.122Z,6.62
2017-12-28T08:24:16.033Z,6.66
2017-12-28T08:25:15.940Z,6.59
2017-12-28T08:26:15.857Z,6.72
2017-12-28T08:27:15.773Z,6.73
2017-12-28T08:28:15.679Z,6.68
2017-12-28T08:29:15.593Z,6.71
2017-12-28T08:30:15.495Z,6.72
2017-12-28T08:31:15.411Z,6.51
2017-12-28T08:32:15.322Z,6.63
2017-12-28T08:33:15.231Z,6.71
2017-12-28T08:34:15.148Z,6.71
2017-12-28T08:35:15.058Z,6.84
2017-12-28T08:36:14.967Z,6.84
2017-12-28T08:37:14.878Z,6.79
2017-12-28T08:38:14.789Z,6.69
2017-12-28T08:39:14.701Z,6.66
2017-12-28T08:40:14.613Z,6.69
2017-12-28T08:41:14.521Z,6.63
2017-12-28T08:42:14.439Z,6.59
2017-12-28T08:43:14.345Z,6.62
2017-12-28T08:44:14.258Z,6.62
2017-12-28T08:45:14.163Z,6.59
2017-12-28T08:46:14.072Z,6.62
2017-12-28T08:47:13.988Z,6.69
2017-12-28T08:48:13.904Z,6.80
2017-12-28T08:49:13.812Z,6.76
2017-12-28T08:50:13.729Z,6.80
2017-12-28T08:51:13.636Z,6.76
2017-12-28T08:52:13.540Z,6.35
2017-12-28T08:53:13.468Z,6.47
2017-12-28T08:54:13.363Z,6.41
2017-12-28T08:55:13.271Z,6.66
2017-12-28T08:56:13.188Z,6.66
2017-12-28T08:57:13.093Z,6.71
2017-12-28T08:58:13.005Z,6.63
2017-12-28T08:59:12.920Z,6.58
2017-12-28T09:00:12.836Z,6.47
2017-12-28T09:01:12.750Z,6.43
2017-12-28T09:02:12.654Z,6.58
2017-12-28T09:03:12.572Z,6.56
2017-12-28T09:04:12.475Z,6.53
2017-12-28T09:05:12.389Z,6.46
2017-12-28T09:06:12.293Z,6.58
2017-12-28T09:07:12.202Z,6.41
2017-12-28T09:08:12.112Z,6.30
2017-12-28T09:09:12.031Z,6.73
2017-12-28T09:10:11.935Z,6.89
2017-12-28T09:11:11.852Z,7.04
2017-12-28T09:12:11.755Z,7.07
2017-12-28T09:13:11.669Z,7.24
2017-12-28T09:14:11.578Z,7.23
2017-12-28T09:15:11.488Z,7.38
2017-12-28T09:16:11.399Z,7.23
2017-12-28T09:17:11.309Z,7.17
2017-12-28T09:18:11.220Z,7.31
2017-12-28T09:19:11.135Z,7.34
2017-12-28T09:20:11.048Z,7.37
2017-12-28T09:21:10.961Z,7.31
2017-12-28T09:22:10.864Z,7.31
2017-12-28T09:23:10.779Z,6.83
2017-12-28T09:24:10.695Z,7.02
2017-12-28T09:25:10.602Z,7.26
2017-12-28T09:26:10.512Z,7.35
2017-12-28T09:27:10.430Z,7.19
2017-12-28T09:28:10.340Z,7.34
2017-12-28T09:29:10.250Z,7.07
2017-12-28T09:30:10.155Z,7.08
2017-12-28T09:31:10.074Z,7.19
2017-12-28T09:32:09.978Z,7.16
2017-12-28T09:33:09.932Z,6.89
2017-12-28T09:34:09.846Z,6.72
2017-12-28T09:35:09.724Z,6.72
2017-12-28T09:36:09.643Z,6.80
2017-12-28T09:37:09.542Z,6.86
2017-12-28T09:38:09.449Z,6.81
2017-12-28T09:39:09.356Z,6.71
2017-12-28T09:40:09.271Z,6.58
2017-12-28T09:41:09.178Z,6.66
2017-12-28T09:42:09.097Z,6.50
2017-12-28T09:43:09.007Z,6.48
2017-12-28T09:44:08.918Z,6.43
2017-12-28T09:45:08.825Z,6.65
2017-12-28T09:46:08.733Z,6.62
2017-12-28T09:47:08.641Z,6.80
2017-12-28T09:48:08.560Z,6.69
2017-12-28T09:49:08.469Z,6.58
2017-12-28T09:50:08.379Z,6.56
2017-12-28T09:51:08.286Z,6.41
2017-12-28T09:52:08.199Z,6.58
2017-12-28T09:53:08.106Z,6.43
2017-12-28T09:54:08.021Z,6.32
2017-12-28T09:55:07.990Z,6.41
2017-12-28T09:56:07.863Z,6.10
2017-12-28T09:57:07.744Z,6.14
2017-12-28T09:58:07.660Z,6.36
2017-12-28T09:59:07.573Z,6.40
2017-12-28T10:00:07.477Z,6.19
2017-12-28T10:01:07.386Z,5.98
2017-12-28T10:02:07.299Z,6.00
2017-12-28T10:03:07.217Z,6.11
2017-12-28T10:04:07.116Z,6.00
2017-12-28T10:05:07.043Z,5.92
2017-12-28T10:06:06.935Z,5.74
2017-12-28T10:07:06.926Z,6.01
2017-12-28T10:08:06.757Z,6.09
2017-12-28T10:09:06.666Z,6.35
2017-12-28T10:10:06.577Z,6.18
2017-12-28T10:11:06.480Z,6.06
2017-12-28T10:12:06.397Z,6.16
2017-12-28T10:13:06.298Z,6.14
2017-12-28T10:14:06.232Z,6.22
2017-12-28T10:15:06.126Z,6.18
2017-12-28T10:16:06.030Z,6.40
2017-12-28T10:17:05.943Z,6.16
2017-12-28T10:18:05.853Z,5.91
2017-12-28T10:19:05.757Z,6.03
2017-12-28T10:20:05.672Z,5.92
2017-12-28T10:21:05.579Z,6.11
2017-12-28T10:22:05.493Z,5.83
2017-12-28T10:23:05.395Z,6.09
2017-12-28T10:24:05.319Z,6.07
2017-12-28T10:25:05.215Z,5.96
2017-12-28T10:26:05.130Z,6.01
2017-12-28T10:27:05.034Z,5.74
2017-12-28T10:28:04.945Z,5.56
2017-12-28T10:29:04.861Z,5.74
2017-12-28T10:30:04.771Z,5.78
2017-12-28T10:31:04.679Z,5.91
2017-12-28T10:32:04.579Z,6.04
2017-12-28T10:33:04.490Z,5.92
2017-12-28T10:34:04.398Z,5.98
2017-12-28T10:35:04.317Z,5.66
2017-12-28T10:36:04.218Z,5.81
2017-12-28T10:37:04.121Z,5.89
2017-12-28T10:38:04.046Z,5.91
2017-12-28T10:39:03.953Z,5.60
2017-12-28T10:40:03.850Z,5.81
2017-12-28T10:41:03.761Z,6.03
2017-12-28T10:42:03.697Z,6.00
2017-12-28T10:43:03.624Z,5.98
2017-12-28T10:44:03.489Z,6.01
2017-12-28T10:45:03.409Z,6.19
2017-12-28T10:46:03.317Z,6.11
2017-12-28T10:47:03.221Z,5.96
2017-12-28T10:48:03.129Z,6.09
2017-12-28T10:49:03.038Z,6.01
2017-12-28T10:50:03.037Z,6.11
2017-12-28T10:51:02.858Z,5.92
2017-12-28T10:52:02.769Z,5.92
2017-12-28T10:53:02.675Z,5.83
2017-12-28T10:54:02.590Z,5.98
2017-12-28T10:55:02.503Z,5.73
2017-12-28T10:56:02.418Z,5.92
2017-12-28T10:57:02.314Z,5.56
2017-12-28T10:58:02.225Z,5.85
2017-12-28T10:59:02.140Z,5.85
2017-12-28T11:00:02.056Z,5.83
2017-12-28T11:01:01.959Z,5.64
2017-12-28T11:02:01.865Z,5.57
2017-12-28T11:03:01.766Z,5.49
2017-12-28T11:04:01.685Z,5.70
2017-12-28T11:05:01.589Z,5.82
2017-12-28T11:06:01.499Z,5.92
2017-12-28T11:07:01.410Z,5.88
2017-12-28T11:08:01.319Z,5.93
2017-12-28T11:09:01.243Z,5.82
2017-12-28T11:10:01.133Z,5.83
2017-12-28T11:11:01.044Z,5.64
2017-12-28T11:12:00.962Z,5.86
2017-12-28T11:13:00.862Z,5.95
2017-12-28T11:14:00.773Z,5.92
2017-12-28T11:15:00.683Z,5.92
2017-12-28T11:16:00.597Z,5.96
2017-12-28T11:17:00.501Z,5.83
2017-12-28T11:18:00.407Z,5.92
2017-12-28T11:19:00.332Z,5.92
2017-12-28T11:20:00.234Z,5.71
2017-12-28T11:21:00.139Z,5.63
2017-12-28T11:22:00.043Z,5.81
2017-12-28T11:22:59.958Z,5.93
2017-12-28T11:23:59.872Z,6.03
2017-12-28T11:24:59.799Z,5.71
2017-12-28T11:25:59.682Z,5.74
2017-12-28T11:26:59.596Z,5.82
2017-12-28T11:27:59.544Z,5.89
2017-12-28T11:28:59.413Z,5.89
2017-12-28T11:29:59.321Z,5.89
2017-12-28T11:30:59.229Z,5.78
2017-12-28T11:31:59.193Z,5.92
2017-12-28T11:32:59.054Z,5.98
2017-12-28T11:33:58.959Z,6.00
2017-12-28T11:34:58.868Z,5.93
2017-12-28T11:35:58.778Z,5.88
2017-12-28T11:36:58.699Z,5.82
2017-12-28T11:37:58.599Z,5.78
2017-12-28T11:39:58.475Z,5.66
2017-12-28T11:40:58.362Z,5.71
2017-12-28T11:41:58.243Z,5.64
2017-12-28T11:42:58.156Z,5.74
2017-12-28T11:43:58.089Z,5.85
2017-12-28T11:44:57.971Z,5.70
2017-12-28T11:45:57.882Z,5.82
2017-12-28T11:46:57.792Z,5.96
2017-12-28T11:47:57.700Z,6.01
2017-12-28T11:48:57.608Z,6.04
2017-12-28T11:49:57.516Z,5.91
2017-12-28T11:50:57.419Z,5.63
2017-12-28T11:51:57.330Z,5.82
2017-12-28T11:52:57.241Z,5.82
2017-12-28T11:53:57.150Z,5.63
2017-12-28T11:54:57.101Z,5.63
2017-12-28T11:55:56.975Z,5.75
2017-12-28T11:56:56.880Z,5.64
2017-12-28T11:57:56.815Z,5.77
2017-12-28T11:58:56.709Z,5.83
2017-12-28T11:59:56.622Z,5.95
2017-12-28T12:00:56.523Z,5.83
2017-12-28T12:01:56.436Z,5.73
2017-12-28T12:02:56.335Z,5.78
2017-12-28T12:03:56.248Z,5.71
2017-12-28T12:04:56.165Z,5.77
2017-12-28T12:05:56.071Z,5.64
2017-12-28T12:06:55.974Z,5.70
2017-12-28T12:07:55.884Z,5.41
2017-12-28T12:08:55.791Z,5.48
2017-12-28T12:09:55.698Z,5.71
2017-12-28T12:10:55.665Z,5.71
2017-12-28T12:11:55.521Z,5.93
2017-12-28T12:12:55.441Z,5.89
2017-12-28T12:13:55.337Z,5.74
2017-12-28T12:14:55.252Z,5.85
2017-12-28T12:15:55.168Z,5.81
2017-12-28T12:16:55.076Z,5.83
2017-12-28T12:17:54.984Z,5.86
2017-12-28T12:18:54.891Z,5.74
2017-12-28T12:19:54.797Z,5.64
2017-12-28T12:20:54.706Z,5.75
2017-12-28T12:21:54.613Z,5.74
2017-12-28T12:22:54.533Z,5.83
2017-12-28T12:23:54.434Z,5.89
2017-12-28T12:24:54.343Z,6.01
2017-12-28T12:25:54.263Z,5.74
2017-12-28T12:26:54.197Z,5.83
2017-12-28T12:27:54.083Z,5.75
2017-12-28T12:28:53.989Z,5.68
2017-12-28T12:29:53.901Z,5.77
2017-12-28T12:30:53.807Z,5.88
2017-12-28T12:31:53.730Z,5.89
2017-12-28T12:32:53.636Z,5.92
2017-12-28T12:33:53.538Z,5.88
2017-12-28T12:34:53.475Z,5.91
2017-12-28T12:35:53.367Z,5.56
2017-12-28T12:36:53.314Z,5.88
2017-12-28T12:37:53.184Z,5.91
2017-12-28T12:38:53.086Z,5.73
2017-12-28T12:39:53.001Z,5.73
2017-12-28T12:40:52.906Z,5.88
2017-12-28T12:41:52.822Z,5.88
2017-12-28T12:42:52.726Z,5.89
2017-12-28T12:43:52.634Z,5.83
2017-12-28T12:44:52.542Z,5.92
2017-12-28T12:45:52.467Z,5.89
2017-12-28T12:46:52.374Z,5.91
2017-12-28T12:47:52.322Z,5.73
2017-12-28T12:48:52.184Z,5.85
2017-12-28T12:49:52.092Z,5.86
2017-12-28T12:50:52.041Z,5.88
2017-12-28T12:51:51.915Z,5.88
2017-12-28T12:52:51.819Z,5.85
2017-12-28T12:53:51.748Z,5.85
2017-12-28T12:54:51.639Z,5.83
2017-12-28T12:55:51.562Z,5.83
2017-12-28T12:56:51.458Z,5.82
2017-12-28T12:57:51.374Z,5.74
2017-12-28T12:58:51.298Z,5.89
2017-12-28T12:59:51.190Z,5.74
2017-12-28T13:00:51.104Z,5.77
2017-12-28T13:01:51.013Z,5.64
2017-12-28T13:02:50.919Z,5.74
2017-12-28T13:03:50.825Z,5.83
2017-12-28T13:04:50.757Z,5.95
2017-12-28T13:05:50.649Z,5.91
2017-12-28T13:06:50.657Z,5.82
2017-12-28T13:07:50.471Z,5.85
2017-12-28T13:08:50.378Z,5.86
2017-12-28T13:09:50.295Z,5.92
2017-12-28T13:10:50.209Z,5.83
2017-12-28T13:11:50.111Z,5.86
2017-12-28T13:12:50.015Z,5.91
2017-12-28T13:13:49.935Z,5.86
2017-12-28T13:14:49.844Z,5.86
2017-12-28T13:15:49.756Z,5.88
2017-12-28T13:16:49.660Z,5.92
2017-12-28T13:17:49.572Z,5.89